Time;durP1;ratioP1;P1;durP2;ratioP2;P2;SDS_P1;SDS_P2;PMS_P1;PMS_P2;Temp;Humidity;BMP_temperature;BMP_pressure;BME280_temperature;BME280_humidity;BME280_pressure;Samples;Min_cycle;Max_cycle;Signal;HPM_P1;HPM_P2
2022/11/30 00:00:50;;;;;;;;;34.75;26.75;;;;;9.05;73.04;101891.38;5096859;27;45898;-54
2022/11/30 00:03:15;;;;;;;;;30.25;22.50;;;;;9.00;72.51;101883.75;5097141;27;45370;-51
2022/11/30 00:05:41;;;;;;;;;27.75;21.50;;;;;8.98;72.62;101882.19;5097133;27;45403;-52
2022/11/30 00:08:06;;;;;;;;;30.50;22.25;;;;;8.97;72.47;101883.09;5097390;27;45313;-54
2022/11/30 00:10:32;;;;;;;;;30.75;23.75;;;;;8.46;72.40;101803.56;5097118;27;46082;-54
2022/11/30 00:12:57;;;;;;;;;29.25;20.75;;;;;8.91;72.84;101878.25;5096872;27;45322;-51
2022/11/30 00:15:23;;;;;;;;;40.25;31.75;;;;;8.93;72.45;101882.50;5097221;27;45680;-49
2022/11/30 00:17:48;;;;;;;;;37.25;28.00;;;;;8.97;72.21;101877.78;5097363;27;45362;-50
2022/11/30 00:20:14;;;;;;;;;38.25;29.00;;;;;8.96;72.69;101873.47;5096514;27;45329;-49
2022/11/30 00:22:40;;;;;;;;;31.75;23.50;;;;;9.00;72.63;101880.25;5096931;27;45268;-55
2022/11/30 00:25:07;;;;;;;;;44.00;31.00;;;;;8.98;72.54;101880.38;5096869;27;45245;-58
2022/11/30 00:27:33;;;;;;;;;45.25;30.75;;;;;9.00;73.01;101878.44;5097073;27;45326;-51
2022/11/30 00:29:59;;;;;;;;;47.00;27.00;;;;;8.97;72.08;101878.69;5096709;27;46034;-59
2022/11/30 00:32:27;;;;;;;;;42.00;37.75;;;;;8.98;72.80;101874.22;5096860;27;45293;-57
2022/11/30 00:34:53;;;;;;;;;48.50;41.25;;;;;8.98;72.52;101876.88;5097443;27;45276;-59
2022/11/30 00:37:19;;;;;;;;;37.00;31.25;;;;;8.96;71.74;101863.69;5100495;27;45409;-59
2022/11/30 00:39:44;;;;;;;;;33.50;25.00;;;;;8.97;72.41;101867.19;5100290;27;46198;-59
2022/11/30 00:42:10;;;;;;;;;40.00;25.25;;;;;8.88;72.01;101854.56;5100355;27;45376;-57
2022/11/30 00:44:35;;;;;;;;;33.50;27.75;;;;;8.96;72.54;101873.47;5100535;27;45365;-56
2022/11/30 00:47:00;;;;;;;;;35.00;27.50;;;;;8.93;71.88;101871.00;5100549;27;45447;-57
2022/11/30 00:49:26;;;;;;;;;31.00;26.75;;;;;8.92;72.17;101869.31;5099913;27;45242;-51
2022/11/30 00:51:51;;;;;;;;;41.00;33.00;;;;;8.90;72.01;101866.78;5100183;27;45222;-53
2022/11/30 00:54:16;;;;;;;;;28.00;20.50;;;;;8.89;72.78;101865.09;5100337;27;45359;-54
2022/11/30 00:56:42;;;;;;;;;35.25;29.75;;;;;8.87;71.83;101861.69;5100147;27;45481;-51
2022/11/30 00:59:07;;;;;;;;;28.00;25.50;;;;;8.90;71.95;101869.44;5100041;27;45312;-51
2022/11/30 01:01:33;;;;;;;;;36.75;28.25;;;;;8.90;72.68;101863.28;5099710;27;45503;-52
2022/11/30 01:03:58;;;;;;;;;34.00;25.50;;;;;8.89;72.66;101861.56;5100118;27;45429;-59
2022/11/30 01:06:23;;;;;;;;;38.25;29.50;;;;;8.78;71.90;101845.56;5100320;27;45392;-58
2022/11/30 01:08:49;;;;;;;;;20.50;15.00;;;;;8.85;72.48;101855.66;5099853;27;45356;-59
2022/11/30 01:11:23;;;;;;;;;33.75;27.75;;;;;8.82;72.00;101861.16;5099660;27;45416;-50
2022/11/30 01:13:49;;;;;;;;;34.50;28.00;;;;;8.82;72.96;101866.47;5099723;27;45334;-50
2022/11/30 01:16:18;;;;;;;;;36.25;28.25;;;;;8.81;72.17;101866.59;5099775;27;45330;-58
2022/11/30 01:18:44;;;;;;;;;32.00;27.00;;;;;8.81;72.34;101871.91;5099535;27;46370;-55
2022/11/30 01:21:13;;;;;;;;;28.00;27.25;;;;;8.78;72.04;101869.47;5099426;27;45536;-58
2022/11/30 01:23:39;;;;;;;;;33.00;24.25;;;;;8.77;71.84;101867.78;5099686;27;45495;-53
2022/11/30 01:26:05;;;;;;;;;29.00;22.00;;;;;8.77;72.31;101875.72;5099806;27;45428;-52
2022/11/30 01:28:31;;;;;;;;;31.75;25.25;;;;;8.73;71.62;101856.50;5099386;27;45642;-56
2022/11/30 01:31:02;;;;;;;;;29.25;27.50;;;;;8.77;72.34;101865.13;5099700;27;45440;-53
2022/11/30 01:33:27;;;;;;;;;26.50;23.00;;;;;8.79;71.63;101869.34;5099652;27;45463;-58
2022/11/30 01:36:00;;;;;;;;;34.00;24.25;;;;;8.80;71.81;101856.91;5099606;27;45360;-54
2022/11/30 01:38:26;;;;;;;;;30.25;24.25;;;;;8.82;72.12;101855.88;5099310;27;45339;-56
2022/11/30 01:40:51;;;;;;;;;29.25;20.75;;;;;8.84;72.17;101856.59;5099424;27;45502;-58
2022/11/30 01:43:18;;;;;;;;;22.00;19.25;;;;;8.83;72.10;101865.50;5099191;27;45283;-53
2022/11/30 01:45:46;;;;;;;;;29.00;22.00;;;;;8.83;71.58;101865.50;5099235;27;45327;-58
2022/11/30 01:48:11;;;;;;;;;31.75;26.50;;;;;8.84;71.49;101872.50;5098970;27;46422;-59
2022/11/30 01:50:37;;;;;;;;;29.00;21.75;;;;;8.84;71.66;101872.50;5099240;27;45329;-54
2022/11/30 01:53:04;;;;;;;;;28.25;21.00;;;;;8.85;71.95;101874.22;5099168;27;45168;-51
2022/11/30 01:55:41;;;;;;;;;29.75;22.75;;;;;8.86;71.12;101875.91;5099489;27;45556;-55
2022/11/30 01:58:11;;;;;;;;;32.75;23.75;;;;;8.79;71.53;101864.03;5098770;27;46216;-57
2022/11/30 02:00:37;;;;;;;;;32.25;20.00;;;;;8.86;71.33;101870.63;5098920;27;45345;-53
2022/11/30 02:03:12;;;;;;;;;30.75;23.75;;;;;8.88;71.26;101870.50;5099276;27;45252;-54
2022/11/30 02:05:40;;;;;;;;;24.00;19.25;;;;;8.88;71.32;101879.28;5099720;27;45437;-50
2022/11/30 02:08:07;;;;;;;;;23.25;17.25;;;;;8.87;71.22;101871.47;5098738;27;45365;-54
2022/11/30 02:10:36;;;;;;;;;22.25;18.25;;;;;8.85;71.49;101871.56;5098325;27;45503;-54
2022/11/30 02:13:29;;;;;;;;;23.75;21.00;;;;;8.84;71.14;101871.66;5098885;27;45498;-54
2022/11/30 02:16:00;;;;;;;;;22.50;17.50;;;;;8.85;71.55;101868.94;5099103;27;45427;-53
2022/11/30 02:18:37;;;;;;;;;22.75;18.00;;;;;8.80;70.62;101864.88;5098720;27;45321;-53
2022/11/30 02:21:23;;;;;;;;;22.00;18.00;;;;;8.83;70.83;101875.28;5098486;27;45474;-52
2022/11/30 02:24:19;;;;;;;;;18.25;16.00;;;;;8.79;70.33;101865.84;5098731;27;45357;-57
2022/11/30 02:27:06;;;;;;;;;19.00;14.67;;;;;8.77;70.64;101875.72;5098795;27;45457;-56
2022/11/30 02:29:47;;;;;;;;;22.25;15.50;;;;;8.73;70.95;101865.31;5098497;27;45295;-57
2022/11/30 02:32:20;;;;;;;;;21.75;17.75;;;;;8.72;70.49;101876.91;5098198;27;45395;-58
2022/11/30 02:34:48;;;;;;;;;28.50;18.75;;;;;8.71;70.15;101869.88;5098528;27;45320;-52
2022/11/30 02:37:16;;;;;;;;;25.50;18.75;;;;;8.73;70.99;101867.13;5098805;27;45360;-54
2022/11/30 02:39:42;;;;;;;;;21.00;17.75;;;;;8.69;70.95;101863.84;5098244;27;46347;-50
2022/11/30 02:42:12;;;;;;;;;18.25;15.75;;;;;8.74;71.01;101877.63;5098279;27;45479;-50
2022/11/30 02:44:39;;;;;;;;;19.75;15.25;;;;;8.72;70.27;101876.00;5098324;27;45349;-56
2022/11/30 02:47:22;;;;;;;;;25.00;19.00;;;;;8.71;71.21;101879.63;5098246;27;45429;-58
2022/11/30 02:49:48;;;;;;;;;23.75;18.00;;;;;8.70;70.74;101869.97;5098032;27;46198;-56
2022/11/30 02:52:15;;;;;;;;;22.50;16.00;;;;;8.59;71.10;101860.09;5098081;27;45372;-57
2022/11/30 02:54:40;;;;;;;;;20.75;18.25;;;;;8.66;71.18;101871.16;5098111;27;45420;-52
2022/11/30 02:57:06;;;;;;;;;23.00;19.75;;;;;8.64;71.29;101865.13;5096865;27;45399;-54
2022/11/30 02:59:32;;;;;;;;;22.00;20.25;;;;;8.64;70.82;101867.78;5095979;27;45643;-56
2022/11/30 03:01:57;;;;;;;;;30.00;18.25;;;;;8.57;70.86;101859.38;5097908;27;45468;-57
2022/11/30 03:04:23;;;;;;;;;20.75;16.25;;;;;8.64;71.25;101865.13;5098174;27;45401;-57
2022/11/30 03:06:48;;;;;;;;;24.00;20.00;;;;;8.68;70.63;101878.06;5098152;27;45355;-57
2022/11/30 03:09:14;;;;;;;;;17.50;15.00;;;;;8.68;70.50;101878.06;5097732;27;45996;-56
2022/11/30 03:11:39;;;;;;;;;16.33;16.00;;;;;8.68;71.24;101877.19;5097890;27;45373;-59
2022/11/30 03:14:05;;;;;;;;;22.50;18.25;;;;;8.68;70.93;101880.72;5097721;27;45547;-54
2022/11/30 03:16:30;;;;;;;;;23.25;18.25;;;;;8.67;70.80;101881.66;5098401;27;45172;-57
2022/11/30 03:18:58;;;;;;;;;26.50;16.50;;;;;8.63;70.72;101880.16;5097627;27;46271;-58
2022/11/30 03:21:24;;;;;;;;;18.50;16.75;;;;;8.62;70.56;101881.13;5097910;27;45425;-58
2022/11/30 03:23:49;;;;;;;;;26.00;19.25;;;;;8.59;70.63;101883.97;5097945;27;45319;-54
2022/11/30 03:26:15;;;;;;;;;20.00;17.00;;;;;8.56;70.53;101878.91;5098639;27;45366;-51
2022/11/30 03:28:40;;;;;;;;;16.50;14.25;;;;;8.57;71.50;101890.38;5098398;27;46360;-60
2022/11/30 03:31:05;;;;;;;;;20.75;15.00;;;;;8.55;71.08;101893.09;5099573;27;45429;-59
2022/11/30 03:33:31;;;;;;;;;13.33;11.00;;;;;8.50;71.04;101892.56;5099806;27;45294;-56
2022/11/30 03:36:00;;;;;;;;;18.33;13.00;;;;;8.44;70.48;101895.66;5099113;27;45306;-55
2022/11/30 03:38:26;;;;;;;;;16.67;13.67;;;;;8.28;71.26;101874.59;5098143;27;46036;-58
2022/11/30 03:40:59;;;;;;;;;14.33;12.00;;;;;8.03;70.88;101838.31;5097784;27;45479;-59
2022/11/30 03:43:24;;;;;;;;;15.67;10.33;;;;;8.32;71.11;101896.47;5097567;27;45420;-57
2022/11/30 03:45:49;;;;;;;;;13.00;10.00;;;;;8.26;70.98;101897.72;5097553;27;45211;-47
2022/11/30 03:48:15;;;;;;;;;11.00;11.00;;;;;8.24;70.93;101903.13;5097554;27;46384;-54
2022/11/30 03:50:42;;;;;;;;;11.33;11.33;;;;;8.21;71.69;101910.41;5097363;27;45428;-59
2022/11/30 03:53:07;;;;;;;;;12.67;6.00;;;;;8.14;71.54;101911.81;5097571;27;45389;-57
2022/11/30 03:55:34;;;;;;;;;10.00;8.33;;;;;8.10;71.50;101913.81;5097779;27;45378;-58
2022/11/30 03:57:59;;;;;;;;;5.67;5.67;;;;;8.08;71.60;101913.03;5097274;27;45434;-58
2022/11/30 04:00:25;;;;;;;;;5.67;5.67;;;;;8.06;71.63;101916.75;5097264;27;45332;-47
2022/11/30 04:02:50;;;;;;;;;11.33;7.33;;;;;8.05;71.93;101923.88;5097197;27;45758;-49
2022/11/30 04:05:15;;;;;;;;;8.00;5.33;;;;;8.04;71.43;101919.50;5097432;27;45392;-55
2022/11/30 04:07:41;;;;;;;;;5.33;5.33;;;;;8.05;72.00;101917.69;5097152;27;45337;-48
2022/11/30 04:10:06;;;;;;;;;18.00;11.50;;;;;8.04;71.49;101916.00;5097794;27;45390;-47
2022/11/30 04:12:32;;;;;;;;;21.25;16.00;;;;;8.03;71.81;101923.09;5100970;27;45279;-49
2022/11/30 04:14:57;;;;;;;;;4.00;4.00;;;;;8.03;71.95;101928.41;5100800;27;45444;-48
2022/11/30 04:17:22;;;;;;;;;4.33;4.33;;;;;7.96;71.16;101917.38;5100666;27;47271;-48
2022/11/30 04:19:48;;;;;;;;;5.33;3.67;;;;;7.95;71.03;101922.75;5100731;27;45364;-48
2022/11/30 04:22:13;;;;;;;;;4.67;4.67;;;;;7.92;71.32;101938.84;5100576;27;45364;-49
2022/11/30 04:24:38;;;;;;;;;4.67;2.00;;;;;7.86;70.97;101932.16;5101248;27;45342;-50
2022/11/30 04:27:04;;;;;;;;;8.33;5.67;;;;;7.82;71.22;101935.94;5100470;27;46066;-57
2022/11/30 04:29:29;;;;;;;;;7.33;4.33;;;;;7.79;71.51;101933.50;5100522;27;45307;-54
2022/11/30 04:31:54;;;;;;;;;5.67;5.00;;;;;7.74;72.25;101931.16;5100718;27;45745;-57
2022/11/30 04:34:20;;;;;;;;;11.67;4.67;;;;;7.74;71.85;101939.09;5099537;27;45547;-48
2022/11/30 04:36:45;;;;;;;;;5.33;4.00;;;;;7.74;71.12;101938.25;5100526;27;45259;-59
2022/11/30 04:39:10;;;;;;;;;4.67;4.67;;;;;7.70;71.66;101942.88;5100963;27;45362;-52
2022/11/30 04:41:36;;;;;;;;;5.00;5.00;;;;;7.65;71.56;101944.16;5101227;27;45214;-54
2022/11/30 04:44:01;;;;;;;;;9.67;2.67;;;;;7.63;71.77;101952.19;5101224;27;45408;-54
2022/11/30 04:46:26;;;;;;;;;6.33;5.67;;;;;7.60;71.94;101940.94;5100921;27;45155;-51
2022/11/30 04:48:52;;;;;;;;;9.75;8.25;;;;;7.52;72.29;101937.94;5101057;27;45257;-50
2022/11/30 04:51:17;;;;;;;;;5.67;5.00;;;;;7.49;72.26;101949.56;5101216;27;45389;-58
2022/11/30 04:53:42;;;;;;;;;6.00;5.00;;;;;7.45;72.15;101948.91;5101112;27;45298;-55
2022/11/30 04:56:10;;;;;;;;;9.25;6.50;;;;;7.43;72.23;101956.09;5100633;27;46269;-58
2022/11/30 04:58:37;;;;;;;;;10.33;4.33;;;;;7.38;72.36;101952.06;5100097;27;45227;-58
2022/11/30 05:01:03;;;;;;;;;5.33;5.00;;;;;7.42;72.75;101961.50;5100158;27;45422;-56
2022/11/30 05:03:28;;;;;;;;;8.67;5.67;;;;;7.41;71.57;101960.63;5100108;27;45307;-55
2022/11/30 05:05:53;;;;;;;;;5.67;5.67;;;;;7.40;71.57;101963.38;5100034;27;46106;-51
2022/11/30 05:08:19;;;;;;;;;6.67;5.67;;;;;7.39;72.39;101965.19;5099956;27;45294;-54
2022/11/30 05:10:44;;;;;;;;;6.67;5.00;;;;;7.38;71.26;101960.84;5099967;27;45333;-56
2022/11/30 05:13:09;;;;;;;;;4.67;4.33;;;;;7.32;71.96;101953.28;5100318;27;45328;-50
2022/11/30 05:15:35;;;;;;;;;7.00;5.00;;;;;7.33;71.66;101955.00;5099681;27;46065;-55
2022/11/30 05:18:01;;;;;;;;;7.33;7.33;;;;;7.33;72.75;101947.06;5099971;27;45454;-56
2022/11/30 05:20:27;;;;;;;;;11.00;5.75;;;;;7.36;71.79;101946.00;5099668;27;45380;-51
2022/11/30 05:22:53;;;;;;;;;11.00;7.50;;;;;7.37;72.22;101948.53;5099586;27;45276;-49
2022/11/30 05:25:18;;;;;;;;;8.50;5.50;;;;;7.37;72.03;101945.03;5099364;27;45443;-54
2022/11/30 05:27:44;;;;;;;;;6.75;6.75;;;;;7.35;72.55;101947.78;5099522;27;45542;-54
2022/11/30 05:30:10;;;;;;;;;9.67;4.67;;;;;7.35;71.24;101952.22;5099728;27;45400;-54
2022/11/30 05:32:35;;;;;;;;;4.67;4.00;;;;;7.31;72.16;101943.63;5099685;27;45293;-51
2022/11/30 05:35:01;;;;;;;;;8.00;5.67;;;;;7.28;72.47;101945.63;5099268;27;46084;-50
2022/11/30 05:37:26;;;;;;;;;5.75;4.00;;;;;7.25;72.13;101942.22;5099338;27;45389;-57
2022/11/30 05:39:51;;;;;;;;;6.75;4.00;;;;;7.22;72.25;101939.75;5099629;27;45248;-51
2022/11/30 05:42:17;;;;;;;;;8.50;6.00;;;;;7.24;72.77;101944.94;5099579;27;45363;-57
2022/11/30 05:44:42;;;;;;;;;7.50;5.00;;;;;7.23;72.65;101930.03;5098946;27;46151;-58
2022/11/30 05:47:07;;;;;;;;;7.50;5.75;;;;;7.25;72.93;101936.94;5099019;27;45241;-55
2022/11/30 05:49:33;;;;;;;;;9.25;7.75;;;;;7.27;72.69;101939.47;5099405;27;45381;-55
2022/11/30 05:51:58;;;;;;;;;10.67;5.00;;;;;7.31;72.22;101934.84;5099600;27;45211;-59
2022/11/30 05:54:23;;;;;;;;;8.75;5.00;;;;;7.34;72.42;101937.31;5099348;27;45231;-57
2022/11/30 05:56:49;;;;;;;;;7.25;5.50;;;;;7.37;73.08;101934.44;5099091;27;45436;-55
2022/11/30 05:59:14;;;;;;;;;9.00;6.50;;;;;7.41;72.52;101949.19;5099132;27;45232;-48
2022/11/30 06:01:39;;;;;;;;;15.50;6.50;;;;;7.44;72.92;101930.47;5099481;27;45373;-57
2022/11/30 06:04:06;;;;;;;;;12.00;8.00;;;;;7.47;72.75;101925.00;5098919;27;46042;-56
2022/11/30 06:06:31;;;;;;;;;14.50;8.25;;;;;7.54;73.14;101936.88;5098986;27;45382;-56
2022/11/30 06:08:57;;;;;;;;;11.00;6.00;;;;;7.53;73.14;101924.59;5098854;27;45201;-49
2022/11/30 06:11:22;;;;;;;;;9.25;8.00;;;;;7.59;73.12;101934.81;5099237;27;45292;-56
2022/11/30 06:13:47;;;;;;;;;11.75;6.25;;;;;7.63;73.03;101931.00;5098118;27;45424;-58
2022/11/30 06:16:13;;;;;;;;;7.67;6.00;;;;;7.62;72.31;101924.00;5098901;27;45418;-53
2022/11/30 06:18:38;;;;;;;;;14.75;8.75;;;;;7.65;72.63;101931.75;5099091;27;45359;-58
2022/11/30 06:21:09;;;;;;;;;15.75;10.50;;;;;7.63;72.76;101928.38;5098876;27;45405;-57
2022/11/30 06:23:35;;;;;;;;;12.50;10.00;;;;;7.67;72.29;101927.22;5098653;27;45436;-54
2022/11/30 06:26:09;;;;;;;;;6.00;6.00;;;;;7.62;72.33;101921.34;5098622;27;45232;-56
2022/11/30 06:28:35;;;;;;;;;9.25;9.25;;;;;7.70;71.93;101931.44;5098527;27;45171;-57
2022/11/30 06:31:02;;;;;;;;;15.75;11.25;;;;;7.70;72.54;101937.59;5098724;27;45373;-57
2022/11/30 06:33:27;;;;;;;;;15.50;11.00;;;;;7.62;72.09;101925.78;5096976;27;45273;-58
2022/11/30 06:35:53;;;;;;;;;11.25;8.50;;;;;7.61;72.52;101930.25;5098328;27;45510;-57
2022/11/30 06:38:18;;;;;;;;;10.25;10.00;;;;;7.57;72.23;101926.09;5098874;27;45334;-54
2022/11/30 06:40:44;;;;;;;;;14.25;12.50;;;;;7.56;73.23;101935.00;5098623;27;45305;-58
2022/11/30 06:43:09;;;;;;;;;12.00;12.00;;;;;7.52;72.58;101920.25;5098321;27;45953;-55
2022/11/30 06:45:35;;;;;;;;;14.75;11.75;;;;;7.65;73.35;101934.41;5098142;27;45348;-58
2022/11/30 06:48:00;;;;;;;;;13.25;10.50;;;;;7.69;72.79;101943.00;5098326;27;45334;-58
2022/11/30 06:50:26;;;;;;;;;10.00;10.00;;;;;7.66;72.79;101930.78;5098727;27;45285;-58
2022/11/30 06:52:51;;;;;;;;;13.25;12.50;;;;;7.82;72.41;101943.91;5098099;27;45419;-58
2022/11/30 06:55:16;;;;;;;;;15.50;14.00;;;;;7.86;72.53;101944.56;5098170;27;45382;-58
2022/11/30 06:57:42;;;;;;;;;17.75;14.25;;;;;7.85;72.06;101942.88;5098275;27;45424;-57
2022/11/30 07:00:10;;;;;;;;;17.50;12.25;;;;;7.90;71.95;101946.06;5098318;27;45373;-57
2022/11/30 07:02:36;;;;;;;;;13.75;11.25;;;;;7.93;71.45;101948.53;5097932;27;46912;-55
2022/11/30 07:05:01;;;;;;;;;17.50;13.50;;;;;7.95;72.43;101947.44;5097992;27;45267;-57
2022/11/30 07:07:29;;;;;;;;;13.50;11.25;;;;;7.99;72.02;101950.75;5098038;27;45194;-57
2022/11/30 07:09:56;;;;;;;;;11.25;9.25;;;;;8.01;71.79;101951.53;5098177;27;45365;-58
2022/11/30 07:12:21;;;;;;;;;26.25;15.00;;;;;8.06;71.92;101953.88;5097692;27;45348;-57
2022/11/30 07:14:47;;;;;;;;;17.00;13.00;;;;;8.06;71.36;101960.00;5097518;27;45432;-55
2022/11/30 07:17:12;;;;;;;;;15.00;13.00;;;;;8.07;71.73;101960.84;5097906;27;45393;-58
2022/11/30 07:19:37;;;;;;;;;22.25;17.00;;;;;8.04;71.20;101963.69;5098057;27;45329;-56
2022/11/30 07:22:03;;;;;;;;;24.75;14.75;;;;;8.05;71.36;101966.28;5097585;27;46121;-56
2022/11/30 07:27:12;;;;;;;;;18.50;16.00;;;;;7.97;71.26;101944.72;5097692;27;45314;-58
2022/11/30 07:29:38;;;;;;;;;16.00;14.00;;;;;8.04;72.06;101956.59;5097741;27;45467;-57
2022/11/30 07:32:03;;;;;;;;;21.25;14.00;;;;;8.04;71.67;101969.84;5097464;27;46098;-57
2022/11/30 07:34:29;;;;;;;;;21.00;16.75;;;;;8.07;71.40;101969.66;5097515;27;45377;-55
2022/11/30 07:36:54;;;;;;;;;20.25;15.00;;;;;8.04;72.04;101963.69;5097635;27;45361;-56
2022/11/30 07:39:19;;;;;;;;;22.75;17.75;;;;;8.08;71.80;101975.78;5097682;27;45238;-59
2022/11/30 07:41:45;;;;;;;;;17.75;14.75;;;;;8.09;71.59;101978.38;5097461;27;47200;-52
2022/11/30 07:44:10;;;;;;;;;19.50;14.00;;;;;8.10;71.39;101993.31;5097106;27;45567;-58
2022/11/30 07:46:37;;;;;;;;;17.75;17.75;;;;;8.10;71.72;101990.66;5097389;27;45451;-48
2022/11/30 07:49:06;;;;;;;;;18.00;12.75;;;;;8.10;71.30;101990.66;5097715;27;45351;-57
2022/11/30 07:51:32;;;;;;;;;23.50;17.50;;;;;8.09;71.18;101994.28;5097283;27;46900;-57
2022/11/30 07:53:58;;;;;;;;;19.75;14.00;;;;;8.09;71.47;101985.44;5097288;27;45321;-50
2022/11/30 07:56:25;;;;;;;;;18.25;11.00;;;;;8.09;71.36;101988.97;5097418;27;45305;-51
2022/11/30 07:58:54;;;;;;;;;19.00;13.75;;;;;8.11;71.24;101995.00;5097384;27;45266;-49
2022/11/30 08:01:22;;;;;;;;;21.50;14.00;;;;;8.10;70.68;101995.97;5097208;27;45742;-58
2022/11/30 08:03:51;;;;;;;;;17.25;16.75;;;;;8.00;71.17;101978.94;5097144;27;45399;-59
2022/11/30 08:06:22;;;;;;;;;22.00;13.50;;;;;8.09;70.98;101998.69;5097403;27;45367;-60
2022/11/30 08:08:49;;;;;;;;;28.25;16.25;;;;;8.06;71.01;101998.91;5097517;27;45393;-59
2022/11/30 08:11:18;;;;;;;;;14.00;8.75;;;;;8.06;71.56;101993.63;5096869;27;46156;-60
2022/11/30 08:13:44;;;;;;;;;18.00;13.00;;;;;8.06;71.74;102001.56;5097035;27;46189;-56
2022/11/30 08:16:12;;;;;;;;;19.25;14.50;;;;;8.04;71.68;102004.28;5097263;27;45590;-59
2022/11/30 08:18:38;;;;;;;;;21.75;15.75;;;;;8.05;71.04;102007.78;5097223;27;45314;-56
2022/11/30 08:21:05;;;;;;;;;20.50;16.50;;;;;8.09;71.96;102004.88;5096840;27;45920;-58
2022/11/30 08:23:52;;;;;;;;;25.75;17.50;;;;;8.13;71.14;102011.66;5096678;27;45305;-57
2022/11/30 08:26:22;;;;;;;;;20.25;15.50;;;;;8.18;71.26;102008.72;5096995;27;45380;-57
2022/11/30 08:28:50;;;;;;;;;22.50;17.50;;;;;8.17;72.34;102014.94;5097222;27;45302;-56
2022/11/30 08:31:22;;;;;;;;;25.75;16.25;;;;;8.15;71.25;102006.25;5096570;27;46435;-58
2022/11/30 08:33:48;;;;;;;;;23.75;17.00;;;;;8.17;71.17;102005.19;5096886;27;45317;-53
2022/11/30 08:36:20;;;;;;;;;26.75;18.25;;;;;8.20;72.16;102017.41;5096948;27;45173;-52
2022/11/30 08:38:46;;;;;;;;;24.75;18.50;;;;;8.20;71.39;102020.91;5097254;27;45285;-50
2022/11/30 08:41:14;;;;;;;;;18.00;15.25;;;;;8.21;71.37;102012.00;5096666;27;45484;-51
2022/11/30 08:43:40;;;;;;;;;24.25;15.75;;;;;8.13;71.89;102002.84;5096489;27;45319;-48
2022/11/30 08:46:09;;;;;;;;;20.50;16.00;;;;;8.24;71.69;102017.09;5096477;27;45295;-48
2022/11/30 08:48:35;;;;;;;;;27.00;23.00;;;;;8.21;71.50;102016.44;5097007;27;45325;-48
2022/11/30 08:51:03;;;;;;;;;24.75;17.25;;;;;8.16;71.00;102003.50;5096453;27;46102;-51
2022/11/30 08:53:29;;;;;;;;;22.75;17.00;;;;;8.25;71.48;102017.94;5094807;27;45386;-50
2022/11/30 08:55:59;;;;;;;;;25.00;20.25;;;;;8.24;71.74;102013.59;5096748;27;45275;-48
2022/11/30 08:58:29;;;;;;;;;31.50;23.25;;;;;8.24;70.61;102019.75;5098133;27;45273;-57
2022/11/30 09:00:54;;;;;;;;;25.75;17.75;;;;;8.11;71.63;101995.00;5098076;27;45365;-51
2022/11/30 09:03:20;;;;;;;;;25.50;20.75;;;;;8.21;71.06;102017.28;5099803;27;45496;-51
2022/11/30 09:05:45;;;;;;;;;21.50;17.50;;;;;8.23;71.19;102022.50;5100494;27;45259;-58
2022/11/30 09:08:11;;;;;;;;;21.00;15.50;;;;;8.27;71.22;102021.38;5100393;27;45321;-58
2022/11/30 09:10:36;;;;;;;;;25.75;17.00;;;;;8.24;71.00;102026.88;5099725;27;46045;-58
2022/11/30 09:13:02;;;;;;;;;22.25;14.25;;;;;8.28;71.73;102033.66;5099791;27;45173;-59
2022/11/30 09:15:27;;;;;;;;;28.75;20.25;;;;;8.27;71.05;102031.13;5099680;27;45324;-58
2022/11/30 09:17:52;;;;;;;;;30.00;16.00;;;;;8.28;70.65;102027.50;5099867;27;45342;-58
2022/11/30 09:20:18;;;;;;;;;36.25;27.25;;;;;8.29;70.23;102035.34;5099230;27;46225;-56
2022/11/30 09:22:43;;;;;;;;;29.75;21.50;;;;;8.21;70.39;102030.53;5099558;27;45288;-58
2022/11/30 09:25:09;;;;;;;;;30.50;28.50;;;;;8.21;70.81;102027.91;5099601;27;45375;-53
2022/11/30 09:27:35;;;;;;;;;34.00;21.50;;;;;8.27;71.29;102034.63;5099658;27;45392;-56
2022/11/30 09:30:01;;;;;;;;;24.00;19.75;;;;;8.30;71.75;102044.16;5099185;27;46142;-55
2022/11/30 09:32:27;;;;;;;;;36.75;23.75;;;;;8.32;71.04;102037.81;5099442;27;45508;-56
2022/11/30 09:34:53;;;;;;;;;40.75;30.25;;;;;8.29;70.74;102031.84;5099313;27;45332;-58
2022/11/30 09:37:18;;;;;;;;;22.00;18.00;;;;;8.35;71.36;102047.38;5099501;27;45222;-58
2022/11/30 09:39:43;;;;;;;;;34.25;21.25;;;;;8.36;69.99;102043.78;5099196;27;45399;-57
2022/11/30 09:42:53;;;;;;;;;23.75;19.00;;;;;8.40;70.56;102045.31;5098952;27;45303;-49
2022/11/30 09:45:24;;;;;;;;;32.00;25.00;;;;;8.44;71.09;102039.69;5016351;28;45541;-59
2022/11/30 09:48:15;;;;;;;;;18.50;13.50;;;;;8.44;70.34;102037.03;5016642;28;45202;-55
2022/11/30 09:50:43;;;;;;;;;34.75;21.75;;;;;8.51;70.63;102040.13;5015825;28;46239;-52
2022/11/30 09:53:42;;;;;;;;;26.25;21.50;;;;;8.53;70.90;102046.19;5016036;28;45426;-48
2022/11/30 09:56:30;;;;;;;;;22.75;13.50;;;;;8.59;70.16;102039.63;5016292;28;45429;-57
2022/11/30 09:59:05;;;;;;;;;22.50;19.25;;;;;8.66;70.00;102038.28;5016276;28;45520;-57
2022/11/30 10:01:33;;;;;;;;;25.75;20.50;;;;;8.70;69.89;102037.97;5015961;28;45434;-58
2022/11/30 10:04:00;;;;;;;;;29.25;21.75;;;;;8.79;70.12;102046.25;5015822;28;45382;-56
2022/11/30 10:06:36;;;;;;;;;27.00;21.50;;;;;8.88;70.38;102037.66;5016045;28;45444;-58
2022/11/30 10:09:26;;;;;;;;;24.50;18.25;;;;;8.94;69.17;102042.56;5016213;28;45355;-59
2022/11/30 10:12:15;;;;;;;;;22.00;19.25;;;;;8.94;69.19;102038.13;5015710;28;45532;-57
2022/11/30 10:14:55;;;;;;;;;31.50;23.25;;;;;8.98;69.63;102031.66;5015657;28;45389;-56
2022/11/30 10:17:36;;;;;;;;;29.75;23.50;;;;;9.03;69.15;102039.28;5098696;27;45507;-56
2022/11/30 10:20:18;;;;;;;;;29.75;26.75;;;;;9.03;69.63;102031.31;5098837;27;45218;-53
2022/11/30 10:23:01;;;;;;;;;25.50;23.00;;;;;9.04;68.66;102030.38;5098275;27;46209;-48
2022/11/30 10:25:35;;;;;;;;;28.75;18.00;;;;;9.09;69.02;102030.88;5098411;27;45458;-51
2022/11/30 10:28:22;;;;;;;;;32.00;21.75;;;;;9.12;68.98;102036.00;5098747;27;45533;-52
2022/11/30 10:30:48;;;;;;;;;26.67;21.00;;;;;9.16;69.07;102032.19;5099149;27;45424;-54
2022/11/30 10:33:23;;;;;;;;;28.33;17.67;;;;;9.16;68.80;102029.53;5098906;27;45449;-51
2022/11/30 10:35:51;;;;;;;;;20.00;16.33;;;;;9.20;68.59;102028.34;5098557;27;45495;-54
2022/11/30 10:38:32;;;;;;;;;24.00;18.33;;;;;9.23;68.15;102028.16;5098619;27;45381;-53
2022/11/30 10:41:00;;;;;;;;;22.00;18.33;;;;;9.28;68.18;102032.28;5098971;27;45431;-53
2022/11/30 10:43:37;;;;;;;;;31.67;21.00;;;;;9.29;68.38;102020.72;5098049;27;45310;-51
2022/11/30 10:46:03;;;;;;;;;27.33;17.67;;;;;9.33;67.82;102028.34;5097931;27;45354;-51
2022/11/30 10:48:44;;;;;;;;;21.33;19.67;;;;;9.37;67.86;102013.06;5098465;27;45461;-47
2022/11/30 10:51:11;;;;;;;;;25.67;20.00;;;;;9.42;68.14;102013.56;5098504;27;45323;-49
2022/11/30 10:53:37;;;;;;;;;24.33;20.00;;;;;9.48;67.94;102015.78;5098038;27;46174;-48
2022/11/30 10:56:09;;;;;;;;;26.33;23.67;;;;;9.49;67.62;102013.03;5098146;27;45297;-52
2022/11/30 10:58:57;;;;;;;;;29.67;22.33;;;;;9.58;67.83;102008.88;5098407;27;45331;-51
2022/11/30 11:01:34;;;;;;;;;29.33;23.33;;;;;9.64;67.75;102005.78;5098300;27;45409;-56
2022/11/30 11:04:13;;;;;;;;;32.67;21.00;;;;;9.73;67.58;101999.81;5097844;27;46156;-55
2022/11/30 11:07:07;;;;;;;;;35.67;25.67;;;;;9.79;67.23;102003.84;5097982;27;45238;-55
2022/11/30 11:09:34;;;;;;;;;30.00;21.67;;;;;9.80;67.15;102010.00;5097929;27;45396;-55
2022/11/30 11:12:23;;;;;;;;;33.00;21.00;;;;;9.81;67.24;102003.72;5098125;27;45380;-56
2022/11/30 11:15:07;;;;;;;;;25.50;22.50;;;;;9.86;67.07;102007.75;5097683;27;45482;-57
2022/11/30 11:17:33;;;;;;;;;36.33;25.33;;;;;9.90;66.95;102008.34;5097586;27;45422;-58
2022/11/30 11:19:59;;;;;;;;;40.67;26.00;;;;;9.94;66.99;101993.88;5097392;27;45436;-57
2022/11/30 11:22:28;;;;;;;;;32.67;21.33;;;;;10.00;66.56;101999.63;5098044;27;45305;-57
2022/11/30 11:25:20;;;;;;;;;30.00;22.00;;;;;10.00;66.91;102007.59;5097768;27;46266;-55
2022/11/30 11:27:52;;;;;;;;;35.33;24.67;;;;;9.96;66.32;102005.28;5097699;27;45345;-57